ダブリン の空港の天気 - METARとTAF

ダブリン空港 ( EIDW / DUB ) - アイルランド ダブリン
飛行場実況気象(Metar)
観測時間09/25 02:30 IST (09/25 01:30 UTC)
風向・風速南南西 2m/s
視程10km以上
天気現象
少しの雲 雲底高度 490m
全天の4割程度の雲 雲底高度 6710m
気温1℃
湿度93%
気圧1037hPa
METAREIDW 250130Z 20003KT 9999 FEW016 SCT220 01/M00 Q1037 NOSIG
過去の天気等 Google飛行場航空写真 Wunderground天気予報

過去48時間のMETAR

飛行場予報(TAF)
発表時間: 9/25 00:00 IST (9/24 23:00 UTC)
予報対象時間: 25日1時 IST ~ 26日1時 IST
風向・風速南南西 3m/s
視程10km以上
少しの雲 雲底高度 610m
25日9時 IST ~ 25日11時 IST に徐々に
風向・風速南南西 6m/s
25日16時 IST ~ 26日1時 IST に一時的に
風向・風速南西 8m/s 瞬間風速 13m/s
TAF EIDW 242300Z 2500/2524 20005KT 9999 FEW020
BECMG 2508/2510 21012KT
TEMPO 2515/2524 23016G26KT